Tokiwa — JD4137 — position and weather

sailwx.info

Track history (hours):
 
Tides and Currents Weather Stations Pressure Air Temp Water Temp Dewpoint Dewpoint Depression Visibility Wind Speed Wind Dir Waves Ship Positions

Tokiwa

Last reported at 2018-Jul-16 08:55 UTC. Time now 2018-Jul-17 07:44 UTC.
Position N 34°24' E 134°14'.

Length 78 m; draft 3.3 m.

Type: Cargo ship. MMSI: 431009243.

Date/timePositionNaut miles runAvg speedWind from/ knotsBaromVisibWave heightAir tempDewpointWater temp
2018-Jul-16 08:55N 34°24' E 134°14'511.7
2018-Jul-16 08:30N 34°25' E 134°19'612.5
2018-Jul-16 08:00N 34°27' E 134°27'612.7
2018-Jul-16 07:31N 34°29' E 134°34'612.2
2018-Jul-16 07:00N 34°31' E 134°41'611.6
2018-Jul-16 06:29N 34°34' E 134°47'610.6
2018-Jul-16 05:58N 34°36' E 134°54'510.1
2018-Jul-16 05:30N 34°37' E 134°59'5 9.6
2018-Jul-16 05:01N 34°36' E 135°05'611.7
2018-Jul-16 04:30N 34°37' E 135°12'3 6.7
2018-Jul-16 04:00N 34°40' E 135°14'0 0.0
2018-Jul-16 03:30N 34°40' E 135°14'0 0.0
2018-Jul-16 03:01N 34°40' E 135°14'0 0.0
2018-Jul-16 02:29N 34°40' E 135°14'0 0.0
2018-Jul-16 01:49N 34°40' E 135°14'0 0.0
2018-Jul-16 01:25N 34°40' E 135°14'0 0.0
2018-Jul-16 00:55N 34°40' E 135°14'1 2.6
2018-Jul-16 00:30N 34°39' E 135°15'0 0.2
2018-Jul-15 23:54N 34°39' E 135°15'0 0.0
2018-Jul-15 23:30N 34°39' E 135°15'0 0.0
2018-Jul-15 23:00N 34°39' E 135°15'0 0.0
2018-Jul-15 22:30N 34°39' E 135°15'0 0.0
2018-Jul-15 21:54N 34°39' E 135°15'0 0.0
2018-Jul-15 21:30N 34°39' E 135°15'0 0.0
2018-Jul-15 21:00N 34°39' E 135°15'3 5.4
2018-Jul-15 20:30N 34°37' E 135°13'612.7
2018-Jul-15 20:00N 34°35' E 135°05'713.3
2018-Jul-15 19:30N 34°36' E 134°58'714.1
2018-Jul-15 19:01N 34°33' E 134°50'612.7
2018-Jul-15 18:31N 34°31' E 134°43'612.3
2018-Jul-15 18:01N 34°29' E 134°36'612.3
2018-Jul-15 17:30N 34°26' E 134°29'711.8
2018-Jul-15 16:56N 34°24' E 134°21'1011.4
2018-Jul-15 16:05N 34°25' E 134°10'  
2018-Jul-13 08:37N 34°24' E 134°18'213.9
2018-Jul-13 08:27N 34°25' E 134°21'612.9
2018-Jul-13 07:58N 34°27' E 134°28'612.9
2018-Jul-13 07:30N 34°29' E 134°35'612.1
2018-Jul-13 07:01N 34°31' E 134°42'612.1
2018-Jul-13 06:30N 34°34' E 134°48'610.9
2018-Jul-13 05:57N 34°36' E 134°55'6 9.1
2018-Jul-13 05:20N 34°37' E 135°02'3 7.2
2018-Jul-13 04:59N 34°36' E 135°05'611.7
2018-Jul-13 04:30N 34°37' E 135°11'612.4
2018-Jul-13 04:01N 34°38' E 135°19'510.5
2018-Jul-13 03:30N 34°38' E 135°25'0 0.0
2018-Jul-13 03:01N 34°38' E 135°25'1 1.6
2018-Jul-13 02:31N 34°38' E 135°24'612.4
2018-Jul-13 02:01N 34°39' E 135°17'2 3.6
2018-Jul-13 01:31N 34°39' E 135°15'0 0.0
2018-Jul-13 01:01N 34°39' E 135°15'0 0.0
2018-Jul-13 00:31N 34°39' E 135°15'0 0.9
2018-Jul-13 00:01N 34°39' E 135°15'3 6.8
2018-Jul-12 23:30N 34°37' E 135°12'510.0
2018-Jul-12 23:01N 34°35' E 135°06'5 9.7
2018-Jul-12 22:30N 34°37' E 135°01'610.3
2018-Jul-12 21:58N 34°35' E 134°54'611.8
2018-Jul-12 21:28N 34°32' E 134°48'511.9
2018-Jul-12 21:00N 34°31' E 134°42'612.5
2018-Jul-12 20:31N 34°28' E 134°35'612.2
2018-Jul-12 20:00N 34°26' E 134°28'612.4
2018-Jul-12 19:30N 34°24' E 134°21'613.0
2018-Jul-12 19:00N 34°24' E 134°13'1 0.0
2018-Jul-11 08:18N 34°24' E 134°14'513.6
2018-Jul-11 07:57N 34°25' E 134°20'812.7
2018-Jul-11 07:20N 34°27' E 134°28'412.6
2018-Jul-11 07:00N 34°29' E 134°33'612.3
2018-Jul-11 06:29N 34°31' E 134°40'611.8
2018-Jul-11 06:00N 34°33' E 134°47'611.4
2018-Jul-11 05:29N 34°36' E 134°54'710.0
2018-Jul-11 04:48N 34°37' E 135°02'2 7.5
2018-Jul-11 04:30N 34°36' E 135°04'611.4
2018-Jul-11 04:00N 34°37' E 135°11'611.7
2018-Jul-11 03:30N 34°38' E 135°18'510.8
2018-Jul-11 03:01N 34°38' E 135°24'1 1.1
2018-Jul-11 02:28N 34°38' E 135°25'0 0.0
2018-Jul-11 02:00N 34°38' E 135°25'3 7.0
2018-Jul-11 01:30N 34°39' E 135°21'510.3
2018-Jul-11 01:00N 34°39' E 135°15'0 0.0
2018-Jul-11 00:28N 34°39' E 135°15'0 0.0
2018-Jul-10 23:46N 34°39' E 135°15'0 0.0
2018-Jul-10 23:28N 34°39' E 135°15'1 1.2
2018-Jul-10 22:59N 34°39' E 135°15'0 0.3
2018-Jul-10 22:30N 34°39' E 135°15'0 0.0
2018-Jul-10 22:00N 34°39' E 135°15'0 0.0
2018-Jul-10 21:30N 34°39' E 135°15'0 0.1
2018-Jul-10 20:42N 34°38' E 135°15'0 0.3
2018-Jul-10 20:30N 34°39' E 135°15'0 0.1
2018-Jul-10 20:00N 34°39' E 135°15'0 0.0
2018-Jul-10 19:30N 34°39' E 135°15'0 0.0
2018-Jul-10 18:54N 34°39' E 135°15'0 0.0
2018-Jul-10 18:24N 34°39' E 135°15'2 4.0
2018-Jul-10 18:00N 34°37' E 135°14'712.7
2018-Jul-10 17:29N 34°35' E 135°06'613.1
2018-Jul-10 17:01N 34°37' E 134°59'1113.9
2018-Jul-10 16:12N 34°32' E 134°47'312.5
2018-Jul-10 16:00N 34°31' E 134°44'612.8
2018-Jul-10 15:31N 34°29' E 134°37'612.6
2018-Jul-10 15:00N 34°26' E 134°30'712.6
2018-Jul-10 14:29N 34°24' E 134°22'813.2
2018-Jul-10 13:51N 34°24' E 134°12'913.5
2018-Jul-10 13:11N 34°26' E 134°01'213.1
2018-Jul-10 13:00N 34°26' E 133°59'19 0.7
2018-Jul-09 09:53N 34°25' E 134°22'613.4
2018-Jul-09 09:26N 34°28' E 134°29'612.9
2018-Jul-09 09:00N 34°30' E 134°35'613.1
2018-Jul-09 08:30N 34°32' E 134°42'714.7
2018-Jul-09 08:00N 34°35' E 134°51'1014.9
2018-Jul-09 07:20N 34°37' E 135°02'412.4
2018-Jul-09 07:01N 34°37' E 135°07'611.8
2018-Jul-09 06:30N 34°38' E 135°14'2 3.4
2018-Jul-09 06:00N 34°40' E 135°14'0 0.0
2018-Jul-09 05:30N 34°40' E 135°14'0 0.0
2018-Jul-09 05:00N 34°40' E 135°14'0 0.0
2018-Jul-09 04:30N 34°40' E 135°14'0 0.0
2018-Jul-09 04:00N 34°40' E 135°14'0 0.0
2018-Jul-09 03:29N 34°40' E 135°14'0 0.0
2018-Jul-09 03:01N 34°40' E 135°14'0 0.0
2018-Jul-09 02:30N 34°40' E 135°14'0 0.0
2018-Jul-09 02:01N 34°40' E 135°14'0 0.0
2018-Jul-09 01:31N 34°40' E 135°14'0 0.0
2018-Jul-09 01:00N 34°40' E 135°14'0 0.0
2018-Jul-09 00:30N 34°40' E 135°14'0 0.0
2018-Jul-09 00:00N 34°40' E 135°14'0 0.0
2018-Jul-08 23:31N 34°40' E 135°14'2 4.0
2018-Jul-08 23:00N 34°41' E 135°13'0 0.3
2018-Jul-08 22:28N 34°41' E 135°13'0 0.0
2018-Jul-08 21:52N 34°41' E 135°13'0 0.0
2018-Jul-08 21:28N 34°41' E 135°13'0 0.0
2018-Jul-08 20:52N 34°41' E 135°13'0 0.0
2018-Jul-08 20:22N 34°41' E 135°13'0 0.0
2018-Jul-08 19:52N 34°41' E 135°13'0 0.0
2018-Jul-08 19:28N 34°41' E 135°13'0 0.0
2018-Jul-08 18:58N 34°41' E 135°13'0 0.0
2018-Jul-08 18:28N 34°41' E 135°13'0 0.0
2018-Jul-08 17:58N 34°41' E 135°13'0 0.0
2018-Jul-08 17:10N 34°41' E 135°13'0 0.0
2018-Jul-08 16:58N 34°41' E 135°13'0 0.0
2018-Jul-08 16:28N 34°41' E 135°13'0 0.0
2018-Jul-08 15:58N 34°41' E 135°13'0 0.0
2018-Jul-08 15:28N 34°41' E 135°13'0 0.0
2018-Jul-08 14:58N 34°41' E 135°13'0 0.0
2018-Jul-08 14:28N 34°41' E 135°13'0 0.0
2018-Jul-08 13:58N 34°41' E 135°13'0 0.0
2018-Jul-08 13:28N 34°41' E 135°13'0 0.0
2018-Jul-08 12:58N 34°41' E 135°13'0 0.0
2018-Jul-08 12:28N 34°41' E 135°13'0 0.0
2018-Jul-08 11:58N 34°41' E 135°13'0 0.0
2018-Jul-08 11:28N 34°41' E 135°13'0 0.0
2018-Jul-08 10:58N 34°41' E 135°13'0 0.0
2018-Jul-08 10:28N 34°41' E 135°13'0 0.0
2018-Jul-08 09:46N 34°41' E 135°13'0 0.0
2018-Jul-08 09:28N 34°41' E 135°13'0 0.0
2018-Jul-08 08:58N 34°41' E 135°13'0 0.0
2018-Jul-08 08:28N 34°41' E 135°13'0 0.0
2018-Jul-08 07:58N 34°41' E 135°13'0 0.0
2018-Jul-08 07:28N 34°41' E 135°13'0 0.0
2018-Jul-08 06:55N 34°41' E 135°13'0 0.0
2018-Jul-08 06:28N 34°41' E 135°13'0 0.0
2018-Jul-08 05:58N 34°41' E 135°13'0 0.0
2018-Jul-08 05:28N 34°41' E 135°13'0 0.0
2018-Jul-08 04:58N 34°41' E 135°13'0 0.0
2018-Jul-08 04:28N 34°41' E 135°13'0 0.0
2018-Jul-08 03:58N 34°41' E 135°13'0 0.0
2018-Jul-08 03:28N 34°41' E 135°13'0 0.0
2018-Jul-08 02:58N 34°41' E 135°13'0 0.0
2018-Jul-08 02:28N 34°41' E 135°13'0 0.0
2018-Jul-08 01:52N 34°41' E 135°13'0 0.0
2018-Jul-08 01:22N 34°41' E 135°13'0 0.0
2018-Jul-08 00:52N 34°41' E 135°13'0 0.0
2018-Jul-08 00:28N 34°41' E 135°13'0 0.0
2018-Jul-07 23:58N 34°41' E 135°13'0 0.0
2018-Jul-07 23:22N 34°41' E 135°13'0 0.0
2018-Jul-07 23:00N 34°41' E 135°13'2 4.5
2018-Jul-07 22:30N 34°40' E 135°15'5 9.2
2018-Jul-07 21:59N 34°37' E 135°11'510.7
2018-Jul-07 21:30N 34°35' E 135°05'510.6
2018-Jul-07 21:00N 34°37' E 134°59'510.4
2018-Jul-07 20:30N 34°35' E 134°54'510.1
2018-Jul-07 20:00N 34°33' E 134°48'510.5
2018-Jul-07 19:30N 34°31' E 134°42'510.9
2018-Jul-07 19:00N 34°29' E 134°36'611.3
2018-Jul-07 18:30N 34°27' E 134°29'9 0.3
2018-Jul-06 15:10N 34°25' E 134°19'213.1
2018-Jul-06 14:59N 34°25' E 134°21'612.2
2018-Jul-06 14:29N 34°28' E 134°28'611.6
2018-Jul-06 14:01N 34°30' E 134°34'611.2
2018-Jul-06 13:29N 34°32' E 134°41'511.1
2018-Jul-06 13:00N 34°34' E 134°47'710.8
2018-Jul-06 12:23N 34°36' E 134°55'610.4
2018-Jul-06 11:47N 34°37' E 135°02'311.2
2018-Jul-06 11:30N 34°36' E 135°06'612.5
2018-Jul-06 11:01N 34°37' E 135°13'2 4.3
2018-Jul-06 10:31N 34°39' E 135°15'0 0.0
2018-Jul-06 10:00N 34°39' E 135°15'0 0.0
2018-Jul-06 09:20N 34°39' E 135°15'  
Track history (hours):
 
Tides and Currents Weather Stations Pressure Air Temp Water Temp Dewpoint Dewpoint Depression Visibility Wind Speed Wind Dir Waves Ship Positions

Tokiwa

Last reported at 2018-Jul-16 08:55 UTC. Time now 2018-Jul-17 07:44 UTC.
Position N 34°24' E 134°14'.

Length 78 m; draft 3.3 m.

Type: Cargo ship. MMSI: 431009243.

Date/timePositionNaut miles runAvg speedWind from/ knotsBaromVisibWave heightAir tempDewpointWater temp
2018-Jul-16 08:55N 34°24' E 134°14'511.7
2018-Jul-16 08:30N 34°25' E 134°19'612.5
2018-Jul-16 08:00N 34°27' E 134°27'612.7
2018-Jul-16 07:31N 34°29' E 134°34'612.2
2018-Jul-16 07:00N 34°31' E 134°41'611.6
2018-Jul-16 06:29N 34°34' E 134°47'610.6
2018-Jul-16 05:58N 34°36' E 134°54'510.1
2018-Jul-16 05:30N 34°37' E 134°59'5 9.6
2018-Jul-16 05:01N 34°36' E 135°05'611.7
2018-Jul-16 04:30N 34°37' E 135°12'3 6.7
2018-Jul-16 04:00N 34°40' E 135°14'0 0.0
2018-Jul-16 03:30N 34°40' E 135°14'0 0.0
2018-Jul-16 03:01N 34°40' E 135°14'0 0.0
2018-Jul-16 02:29N 34°40' E 135°14'0 0.0
2018-Jul-16 01:49N 34°40' E 135°14'0 0.0
2018-Jul-16 01:25N 34°40' E 135°14'0 0.0
2018-Jul-16 00:55N 34°40' E 135°14'1 2.6
2018-Jul-16 00:30N 34°39' E 135°15'0 0.2
2018-Jul-15 23:54N 34°39' E 135°15'0 0.0
2018-Jul-15 23:30N 34°39' E 135°15'0 0.0
2018-Jul-15 23:00N 34°39' E 135°15'0 0.0
2018-Jul-15 22:30N 34°39' E 135°15'0 0.0
2018-Jul-15 21:54N 34°39' E 135°15'0 0.0
2018-Jul-15 21:30N 34°39' E 135°15'0 0.0
2018-Jul-15 21:00N 34°39' E 135°15'3 5.4
2018-Jul-15 20:30N 34°37' E 135°13'612.7
2018-Jul-15 20:00N 34°35' E 135°05'713.3
2018-Jul-15 19:30N 34°36' E 134°58'714.1
2018-Jul-15 19:01N 34°33' E 134°50'612.7
2018-Jul-15 18:31N 34°31' E 134°43'612.3
2018-Jul-15 18:01N 34°29' E 134°36'612.3
2018-Jul-15 17:30N 34°26' E 134°29'711.8
2018-Jul-15 16:56N 34°24' E 134°21'1011.4
2018-Jul-15 16:05N 34°25' E 134°10'  
2018-Jul-13 08:37N 34°24' E 134°18'213.9
2018-Jul-13 08:27N 34°25' E 134°21'612.9
2018-Jul-13 07:58N 34°27' E 134°28'612.9
2018-Jul-13 07:30N 34°29' E 134°35'612.1
2018-Jul-13 07:01N 34°31' E 134°42'612.1
2018-Jul-13 06:30N 34°34' E 134°48'610.9
2018-Jul-13 05:57N 34°36' E 134°55'6 9.1
2018-Jul-13 05:20N 34°37' E 135°02'3 7.2
2018-Jul-13 04:59N 34°36' E 135°05'611.7
2018-Jul-13 04:30N 34°37' E 135°11'612.4
2018-Jul-13 04:01N 34°38' E 135°19'510.5
2018-Jul-13 03:30N 34°38' E 135°25'0 0.0
2018-Jul-13 03:01N 34°38' E 135°25'1 1.6
2018-Jul-13 02:31N 34°38' E 135°24'612.4
2018-Jul-13 02:01N 34°39' E 135°17'2 3.6
2018-Jul-13 01:31N 34°39' E 135°15'0 0.0
2018-Jul-13 01:01N 34°39' E 135°15'0 0.0
2018-Jul-13 00:31N 34°39' E 135°15'0 0.9
2018-Jul-13 00:01N 34°39' E 135°15'3 6.8
2018-Jul-12 23:30N 34°37' E 135°12'510.0
2018-Jul-12 23:01N 34°35' E 135°06'5 9.7
2018-Jul-12 22:30N 34°37' E 135°01'610.3
2018-Jul-12 21:58N 34°35' E 134°54'611.8
2018-Jul-12 21:28N 34°32' E 134°48'511.9
2018-Jul-12 21:00N 34°31' E 134°42'612.5
2018-Jul-12 20:31N 34°28' E 134°35'612.2
2018-Jul-12 20:00N 34°26' E 134°28'612.4
2018-Jul-12 19:30N 34°24' E 134°21'613.0
2018-Jul-12 19:00N 34°24' E 134°13'1 0.0
2018-Jul-11 08:18N 34°24' E 134°14'513.6
2018-Jul-11 07:57N 34°25' E 134°20'812.7
2018-Jul-11 07:20N 34°27' E 134°28'412.6
2018-Jul-11 07:00N 34°29' E 134°33'612.3
2018-Jul-11 06:29N 34°31' E 134°40'611.8
2018-Jul-11 06:00N 34°33' E 134°47'611.4
2018-Jul-11 05:29N 34°36' E 134°54'710.0
2018-Jul-11 04:48N 34°37' E 135°02'2 7.5
2018-Jul-11 04:30N 34°36' E 135°04'611.4
2018-Jul-11 04:00N 34°37' E 135°11'611.7
2018-Jul-11 03:30N 34°38' E 135°18'510.8
2018-Jul-11 03:01N 34°38' E 135°24'1 1.1
2018-Jul-11 02:28N 34°38' E 135°25'0 0.0
2018-Jul-11 02:00N 34°38' E 135°25'3 7.0
2018-Jul-11 01:30N 34°39' E 135°21'510.3
2018-Jul-11 01:00N 34°39' E 135°15'0 0.0
2018-Jul-11 00:28N 34°39' E 135°15'0 0.0
2018-Jul-10 23:46N 34°39' E 135°15'0 0.0
2018-Jul-10 23:28N 34°39' E 135°15'1 1.2
2018-Jul-10 22:59N 34°39' E 135°15'0 0.3
2018-Jul-10 22:30N 34°39' E 135°15'0 0.0
2018-Jul-10 22:00N 34°39' E 135°15'0 0.0
2018-Jul-10 21:30N 34°39' E 135°15'0 0.1
2018-Jul-10 20:42N 34°38' E 135°15'0 0.3
2018-Jul-10 20:30N 34°39' E 135°15'0 0.1
2018-Jul-10 20:00N 34°39' E 135°15'0 0.0
2018-Jul-10 19:30N 34°39' E 135°15'0 0.0
2018-Jul-10 18:54N 34°39' E 135°15'0 0.0
2018-Jul-10 18:24N 34°39' E 135°15'2 4.0
2018-Jul-10 18:00N 34°37' E 135°14'712.7
2018-Jul-10 17:29N 34°35' E 135°06'613.1
2018-Jul-10 17:01N 34°37' E 134°59'1113.9
2018-Jul-10 16:12N 34°32' E 134°47'312.5
2018-Jul-10 16:00N 34°31' E 134°44'612.8
2018-Jul-10 15:31N 34°29' E 134°37'612.6
2018-Jul-10 15:00N 34°26' E 134°30'712.6
2018-Jul-10 14:29N 34°24' E 134°22'813.2
2018-Jul-10 13:51N 34°24' E 134°12'913.5
2018-Jul-10 13:11N 34°26' E 134°01'213.1
2018-Jul-10 13:00N 34°26' E 133°59'19 0.7
2018-Jul-09 09:53N 34°25' E 134°22'613.4
2018-Jul-09 09:26N 34°28' E 134°29'612.9
2018-Jul-09 09:00N 34°30' E 134°35'613.1
2018-Jul-09 08:30N 34°32' E 134°42'714.7
2018-Jul-09 08:00N 34°35' E 134°51'1014.9
2018-Jul-09 07:20N 34°37' E 135°02'412.4
2018-Jul-09 07:01N 34°37' E 135°07'611.8
2018-Jul-09 06:30N 34°38' E 135°14'2 3.4
2018-Jul-09 06:00N 34°40' E 135°14'0 0.0
2018-Jul-09 05:30N 34°40' E 135°14'0 0.0
2018-Jul-09 05:00N 34°40' E 135°14'0 0.0
2018-Jul-09 04:30N 34°40' E 135°14'0 0.0
2018-Jul-09 04:00N 34°40' E 135°14'0 0.0
2018-Jul-09 03:29N 34°40' E 135°14'0 0.0
2018-Jul-09 03:01N 34°40' E 135°14'0 0.0
2018-Jul-09 02:30N 34°40' E 135°14'0 0.0
2018-Jul-09 02:01N 34°40' E 135°14'0 0.0
2018-Jul-09 01:31N 34°40' E 135°14'0 0.0
2018-Jul-09 01:00N 34°40' E 135°14'0 0.0
2018-Jul-09 00:30N 34°40' E 135°14'0 0.0
2018-Jul-09 00:00N 34°40' E 135°14'0 0.0
2018-Jul-08 23:31N 34°40' E 135°14'2 4.0
2018-Jul-08 23:00N 34°41' E 135°13'0 0.3
2018-Jul-08 22:28N 34°41' E 135°13'0 0.0
2018-Jul-08 21:52N 34°41' E 135°13'0 0.0
2018-Jul-08 21:28N 34°41' E 135°13'0 0.0
2018-Jul-08 20:52N 34°41' E 135°13'0 0.0
2018-Jul-08 20:22N 34°41' E 135°13'0 0.0
2018-Jul-08 19:52N 34°41' E 135°13'0 0.0
2018-Jul-08 19:28N 34°41' E 135°13'0 0.0
2018-Jul-08 18:58N 34°41' E 135°13'0 0.0
2018-Jul-08 18:28N 34°41' E 135°13'0 0.0
2018-Jul-08 17:58N 34°41' E 135°13'0 0.0
2018-Jul-08 17:10N 34°41' E 135°13'0 0.0
2018-Jul-08 16:58N 34°41' E 135°13'0 0.0
2018-Jul-08 16:28N 34°41' E 135°13'0 0.0
2018-Jul-08 15:58N 34°41' E 135°13'0 0.0
2018-Jul-08 15:28N 34°41' E 135°13'0 0.0
2018-Jul-08 14:58N 34°41' E 135°13'0 0.0
2018-Jul-08 14:28N 34°41' E 135°13'0 0.0
2018-Jul-08 13:58N 34°41' E 135°13'0 0.0
2018-Jul-08 13:28N 34°41' E 135°13'0 0.0
2018-Jul-08 12:58N 34°41' E 135°13'0 0.0
2018-Jul-08 12:28N 34°41' E 135°13'0 0.0
2018-Jul-08 11:58N 34°41' E 135°13'0 0.0
2018-Jul-08 11:28N 34°41' E 135°13'0 0.0
2018-Jul-08 10:58N 34°41' E 135°13'0 0.0
2018-Jul-08 10:28N 34°41' E 135°13'0 0.0
2018-Jul-08 09:46N 34°41' E 135°13'0 0.0
2018-Jul-08 09:28N 34°41' E 135°13'0 0.0
2018-Jul-08 08:58N 34°41' E 135°13'0 0.0
2018-Jul-08 08:28N 34°41' E 135°13'0 0.0
2018-Jul-08 07:58N 34°41' E 135°13'0 0.0
2018-Jul-08 07:28N 34°41' E 135°13'0 0.0
2018-Jul-08 06:55N 34°41' E 135°13'0 0.0
2018-Jul-08 06:28N 34°41' E 135°13'0 0.0
2018-Jul-08 05:58N 34°41' E 135°13'0 0.0
2018-Jul-08 05:28N 34°41' E 135°13'0 0.0
2018-Jul-08 04:58N 34°41' E 135°13'0 0.0
2018-Jul-08 04:28N 34°41' E 135°13'0 0.0
2018-Jul-08 03:58N 34°41' E 135°13'0 0.0
2018-Jul-08 03:28N 34°41' E 135°13'0 0.0
2018-Jul-08 02:58N 34°41' E 135°13'0 0.0
2018-Jul-08 02:28N 34°41' E 135°13'0 0.0
2018-Jul-08 01:52N 34°41' E 135°13'0 0.0
2018-Jul-08 01:22N 34°41' E 135°13'0 0.0
2018-Jul-08 00:52N 34°41' E 135°13'0 0.0
2018-Jul-08 00:28N 34°41' E 135°13'0 0.0
2018-Jul-07 23:58N 34°41' E 135°13'0 0.0
2018-Jul-07 23:22N 34°41' E 135°13'0 0.0
2018-Jul-07 23:00N 34°41' E 135°13'2 4.5
2018-Jul-07 22:30N 34°40' E 135°15'5 9.2
2018-Jul-07 21:59N 34°37' E 135°11'510.7
2018-Jul-07 21:30N 34°35' E 135°05'510.6
2018-Jul-07 21:00N 34°37' E 134°59'510.4
2018-Jul-07 20:30N 34°35' E 134°54'510.1
2018-Jul-07 20:00N 34°33' E 134°48'510.5
2018-Jul-07 19:30N 34°31' E 134°42'510.9
2018-Jul-07 19:00N 34°29' E 134°36'611.3
2018-Jul-07 18:30N 34°27' E 134°29'9 0.3
2018-Jul-06 15:10N 34°25' E 134°19'213.1
2018-Jul-06 14:59N 34°25' E 134°21'612.2
2018-Jul-06 14:29N 34°28' E 134°28'611.6
2018-Jul-06 14:01N 34°30' E 134°34'611.2
2018-Jul-06 13:29N 34°32' E 134°41'511.1
2018-Jul-06 13:00N 34°34' E 134°47'710.8
2018-Jul-06 12:23N 34°36' E 134°55'610.4
2018-Jul-06 11:47N 34°37' E 135°02'311.2
2018-Jul-06 11:30N 34°36' E 135°06'612.5
2018-Jul-06 11:01N 34°37' E 135°13'2 4.3
2018-Jul-06 10:31N 34°39' E 135°15'0 0.0
2018-Jul-06 10:00N 34°39' E 135°15'0 0.0
2018-Jul-06 09:20N 34°39' E 135°15'  

Dump ship's entire track history